createdAt,value
2022-08-09T00:00:00.951Z,64.82
2022-08-09T00:02:49.013Z,64.69
2022-08-09T00:06:15.396Z,65.03
2022-08-09T00:08:10.031Z,65.01
2022-08-09T00:10:38.645Z,65.53
2022-08-09T00:13:16.983Z,65.74
2022-08-09T00:15:59.275Z,65.62
2022-08-09T00:18:35.869Z,65.27
2022-08-09T00:21:07.923Z,65.21
2022-08-09T00:23:55.927Z,65.29
2022-08-09T00:26:32.870Z,64.57
2022-08-09T00:29:03.674Z,65.01
2022-08-09T00:31:59.319Z,65.12
2022-08-09T00:34:26.075Z,65.17
2022-08-09T00:36:52.972Z,65.35
2022-08-09T00:40:10.266Z,65.79
2022-08-09T00:44:13.328Z,65.98
2022-08-09T00:44:53.929Z,66.24
2022-08-09T00:47:21.538Z,66.09
2022-08-09T00:49:54.518Z,65.69
2022-08-09T00:52:30.450Z,65.69
2022-08-09T00:55:01.531Z,65.18
2022-08-09T00:57:34.400Z,65.61
2022-08-09T01:00:21.879Z,65.79
2022-08-09T01:03:32.726Z,65.91
2022-08-09T01:06:18.153Z,66.10
2022-08-09T01:09:14.961Z,66.19
2022-08-09T01:12:00.447Z,66.02
2022-08-09T01:14:41.480Z,66.49
2022-08-09T01:17:18.001Z,66.43
2022-08-09T01:20:05.131Z,66.29
2022-08-09T01:24:01.227Z,66.63
2022-08-09T01:26:18.969Z,67.18
2022-08-09T01:28:48.355Z,67.37
2022-08-09T01:32:29.121Z,67.34
2022-08-09T01:34:09.062Z,67.95
2022-08-09T01:36:36.382Z,67.57
2022-08-09T01:39:06.359Z,67.35
2022-08-09T01:41:53.616Z,67.20
2022-08-09T01:44:27.648Z,68.00
2022-08-09T01:46:54.754Z,68.10
2022-08-09T01:49:24.310Z,67.99
2022-08-09T01:51:56.327Z,68.42
2022-08-09T01:54:32.548Z,68.31
2022-08-09T01:57:05.122Z,68.75
2022-08-09T01:59:41.106Z,68.68
2022-08-09T02:02:20.934Z,69.43
2022-08-09T02:04:49.848Z,69.33
2022-08-09T02:08:36.088Z,69.57
2022-08-09T02:10:09.891Z,69.35
2022-08-09T02:12:37.800Z,69.93
2022-08-09T02:15:08.004Z,70.01
2022-08-09T02:17:59.968Z,69.84
2022-08-09T02:20:25.041Z,69.87
2022-08-09T02:23:39.803Z,69.97
2022-08-09T02:26:26.796Z,69.94
2022-08-09T02:28:58.269Z,70.09
2022-08-09T02:31:36.574Z,70.62
2022-08-09T02:34:38.658Z,70.73
2022-08-09T02:37:06.839Z,70.34
2022-08-09T02:39:42.585Z,70.07
2022-08-09T02:42:17.189Z,70.51
2022-08-09T02:44:49.610Z,70.40
2022-08-09T02:47:19.295Z,70.50
2022-08-09T02:50:01.352Z,70.88
2022-08-09T02:52:38.588Z,71.61
2022-08-09T02:55:20.314Z,71.89
2022-08-09T02:58:00.598Z,71.61
2022-08-09T03:00:39.477Z,71.81
2022-08-09T03:03:21.621Z,71.71
2022-08-09T03:06:03.023Z,71.74
2022-08-09T03:08:31.195Z,72.33
2022-08-09T03:11:00.240Z,72.40
2022-08-09T03:13:27.429Z,72.74
2022-08-09T03:16:11.144Z,73.07
2022-08-09T03:18:38.427Z,73.15
2022-08-09T03:21:06.075Z,73.24
2022-08-09T03:23:33.139Z,73.15
2022-08-09T03:26:03.465Z,73.14
2022-08-09T03:28:33.051Z,73.34
2022-08-09T03:31:00.374Z,73.57
2022-08-09T03:33:53.371Z,73.94
2022-08-09T03:36:27.051Z,73.79
2022-08-09T03:38:54.989Z,74.16
2022-08-09T03:41:30.222Z,74.14
2022-08-09T03:44:12.038Z,74.06
2022-08-09T03:46:39.328Z,74.21
2022-08-09T03:49:08.895Z,74.09
2022-08-09T03:51:43.887Z,74.11
2022-08-09T03:54:34.511Z,73.66
2022-08-09T03:57:12.190Z,74.02
2022-08-09T03:59:54.651Z,74.41
2022-08-09T04:02:28.509Z,74.62
2022-08-09T04:05:06.927Z,74.61
2022-08-09T04:07:57.260Z,74.36
2022-08-09T04:10:28.916Z,74.39
2022-08-09T04:13:00.807Z,74.75
2022-08-09T04:16:18.380Z,75.30
2022-08-09T04:18:22.009Z,74.97
2022-08-09T04:20:49.989Z,75.41
2022-08-09T04:23:24.340Z,75.64
2022-08-09T04:25:53.173Z,75.62
2022-08-09T04:28:32.973Z,75.87
2022-08-09T04:31:08.406Z,76.00
2022-08-09T04:33:50.182Z,76.17
2022-08-09T04:36:22.084Z,76.54
2022-08-09T04:38:50.258Z,76.46
2022-08-09T04:41:17.110Z,76.67
2022-08-09T04:43:46.571Z,76.49
2022-08-09T04:46:38.181Z,76.58
2022-08-09T04:49:08.981Z,76.65
2022-08-09T04:51:41.493Z,77.27
2022-08-09T04:54:08.405Z,77.37
2022-08-09T04:56:35.933Z,77.56
2022-08-09T04:59:07.444Z,77.75
2022-08-09T05:01:40.029Z,77.65
2022-08-09T05:04:06.905Z,77.75
2022-08-09T05:06:35.930Z,77.62
2022-08-09T05:09:02.908Z,77.57
2022-08-09T05:11:35.331Z,77.42
2022-08-09T05:14:05.611Z,77.27
2022-08-09T05:16:33.458Z,77.19
2022-08-09T05:19:10.401Z,77.28
2022-08-09T05:21:47.275Z,77.25
2022-08-09T05:24:24.062Z,77.20
2022-08-09T05:26:51.498Z,77.10
2022-08-09T05:29:22.037Z,77.26
2022-08-09T05:31:57.170Z,76.51
2022-08-09T05:34:31.383Z,76.01
2022-08-09T05:37:06.070Z,76.50
2022-08-09T05:39:42.884Z,76.15
2022-08-09T05:42:20.508Z,76.27
2022-08-09T05:44:53.974Z,76.01
2022-08-09T05:47:23.184Z,75.96
2022-08-09T05:50:25.686Z,75.98
2022-08-09T05:52:39.785Z,76.50
2022-08-09T05:55:09.789Z,76.68
2022-08-09T05:57:56.046Z,76.59
2022-08-09T06:00:26.015Z,75.99
2022-08-09T06:02:54.398Z,76.30
2022-08-09T06:05:50.336Z,76.86
2022-08-09T06:08:11.928Z,76.17
2022-08-09T06:10:38.885Z,75.34
2022-08-09T06:13:20.306Z,75.40
2022-08-09T06:15:51.271Z,75.23
2022-08-09T06:18:24.963Z,75.09
2022-08-09T06:20:54.514Z,75.14
2022-08-09T06:23:57.410Z,74.79
2022-08-09T06:26:11.768Z,74.72
2022-08-09T06:28:38.399Z,75.18
2022-08-09T06:31:05.098Z,75.40
2022-08-09T06:33:40.668Z,74.66
2022-08-09T06:36:09.335Z,74.20
2022-08-09T06:38:37.641Z,73.44
2022-08-09T06:41:18.364Z,73.23
2022-08-09T06:43:46.916Z,72.88
2022-08-09T06:46:38.977Z,72.78
2022-08-09T06:49:01.374Z,72.34
2022-08-09T06:51:28.289Z,72.73
2022-08-09T06:53:55.483Z,72.00
2022-08-09T06:56:30.630Z,71.31
2022-08-09T07:00:51.797Z,70.89
2022-08-09T07:02:05.543Z,70.70
2022-08-09T07:04:33.158Z,70.80
2022-08-09T07:07:01.002Z,70.35
2022-08-09T07:09:56.439Z,70.03
2022-08-09T07:12:20.158Z,69.36
2022-08-09T07:14:51.330Z,68.84
2022-08-09T07:17:19.936Z,68.74
2022-08-09T07:19:47.952Z,69.03
2022-08-09T07:22:17.388Z,68.57
2022-08-09T07:24:49.333Z,68.57
2022-08-09T07:27:27.360Z,67.12
2022-08-09T07:30:01.984Z,66.63
2022-08-09T07:32:33.122Z,66.52
2022-08-09T07:35:08.211Z,66.72
2022-08-09T07:37:43.371Z,67.06
2022-08-09T07:40:17.292Z,66.48
2022-08-09T07:42:52.499Z,66.72
2022-08-09T07:45:38.306Z,66.58
2022-08-09T07:48:06.466Z,65.66
2022-08-09T07:50:36.424Z,65.35
2022-08-09T07:53:05.262Z,66.67
2022-08-09T07:55:41.684Z,65.75
2022-08-09T07:58:21.616Z,64.87
2022-08-09T08:00:59.091Z,64.72
2022-08-09T08:03:36.941Z,65.41
2022-08-09T08:06:04.718Z,65.78
2022-08-09T08:08:59.673Z,66.13
2022-08-09T08:12:11.234Z,65.18
2022-08-09T08:14:06.497Z,64.08
2022-08-09T08:16:34.610Z,63.86
2022-08-09T08:19:02.633Z,63.69
2022-08-09T08:21:30.440Z,63.64
2022-08-09T08:23:57.183Z,63.46
2022-08-09T08:26:54.605Z,62.61
2022-08-09T08:29:15.040Z,62.30
2022-08-09T08:32:03.795Z,62.05
2022-08-09T08:34:34.293Z,61.94
2022-08-09T08:37:02.416Z,61.37
2022-08-09T08:39:29.115Z,61.01
2022-08-09T08:42:05.410Z,60.92
2022-08-09T08:44:36.544Z,60.57
2022-08-09T08:47:05.032Z,60.55
2022-08-09T08:49:47.840Z,60.10
2022-08-09T08:52:52.986Z,59.28
2022-08-09T08:55:07.962Z,59.44
2022-08-09T08:57:35.882Z,59.79
2022-08-09T09:00:12.867Z,60.22
2022-08-09T09:02:50.010Z,59.71
2022-08-09T09:05:32.914Z,58.62
2022-08-09T09:08:31.124Z,59.01
2022-08-09T09:10:57.724Z,58.39
2022-08-09T09:13:24.736Z,58.63
2022-08-09T09:16:09.396Z,56.98
2022-08-09T09:18:37.577Z,56.17
2022-08-09T09:21:07.154Z,56.50
2022-08-09T09:23:48.982Z,56.05
2022-08-09T09:26:17.224Z,55.86
2022-08-09T09:29:03.681Z,55.82
2022-08-09T09:32:06.597Z,55.03
2022-08-09T09:34:21.949Z,55.05
2022-08-09T09:36:54.769Z,53.93
2022-08-09T09:39:50.394Z,53.12
2022-08-09T09:42:25.513Z,53.86
2022-08-09T09:45:26.590Z,53.41
2022-08-09T09:47:58.705Z,52.92
2022-08-09T09:50:50.751Z,52.73
2022-08-09T09:53:20.885Z,52.32
2022-08-09T09:56:04.502Z,51.61
2022-08-09T09:58:46.517Z,52.31
2022-08-09T10:01:35.873Z,52.04
2022-08-09T10:04:09.534Z,52.08
2022-08-09T10:06:46.842Z,51.38
2022-08-09T10:09:22.162Z,51.23
2022-08-09T10:12:11.764Z,50.91
2022-08-09T10:14:48.607Z,50.30
2022-08-09T10:17:51.152Z,50.96
2022-08-09T10:20:27.386Z,51.55
2022-08-09T10:23:13.863Z,50.76
2022-08-09T10:26:08.164Z,50.69
2022-08-09T10:28:33.480Z,49.53
2022-08-09T10:34:11.216Z,49.35
2022-08-09T10:36:35.537Z,49.82
2022-08-09T10:39:02.397Z,49.96
2022-08-09T10:41:29.112Z,48.99
2022-08-09T10:43:59.197Z,47.59
2022-08-09T10:47:01.130Z,48.27
2022-08-09T10:49:54.336Z,47.57
2022-08-09T10:52:56.800Z,47.97
2022-08-09T10:55:28.858Z,46.78
2022-08-09T10:58:33.815Z,47.85
2022-08-09T11:03:02.652Z,47.04
2022-08-09T11:04:30.759Z,47.79
2022-08-09T11:07:00.319Z,48.39
2022-08-09T11:09:47.542Z,48.31
2022-08-09T11:12:26.646Z,47.51
2022-08-09T11:15:04.289Z,47.11
2022-08-09T11:17:31.864Z,46.12
2022-08-09T11:20:22.268Z,46.32
2022-08-09T11:22:57.333Z,46.66
2022-08-09T11:25:36.241Z,46.86
2022-08-09T11:28:33.983Z,46.92
2022-08-09T11:31:03.939Z,46.67
2022-08-09T11:33:46.231Z,46.08
2022-08-09T11:36:35.372Z,46.96
2022-08-09T11:39:03.910Z,46.39
2022-08-09T11:41:37.876Z,46.45
2022-08-09T11:44:05.511Z,46.09
2022-08-09T11:46:52.816Z,45.69
2022-08-09T11:49:28.055Z,45.11
2022-08-09T11:52:57.121Z,44.84
2022-08-09T11:55:34.999Z,45.34
2022-08-09T11:58:19.802Z,44.37
2022-08-09T12:01:00.141Z,44.54
2022-08-09T12:03:54.896Z,44.63
2022-08-09T12:06:17.623Z,44.53
2022-08-09T12:08:54.804Z,44.25
2022-08-09T12:11:24.485Z,44.57
2022-08-09T12:14:07.195Z,44.15
2022-08-09T12:16:40.147Z,44.08
2022-08-09T12:19:12.954Z,44.34
2022-08-09T12:21:48.526Z,44.27
2022-08-09T12:24:25.132Z,43.95
2022-08-09T12:29:10.737Z,44.11
2022-08-09T12:30:01.799Z,43.52
2022-08-09T12:32:44.508Z,44.01
2022-08-09T12:35:13.467Z,43.88
2022-08-09T12:37:51.601Z,43.50
2022-08-09T12:40:24.350Z,43.67
2022-08-09T12:42:52.231Z,43.19
2022-08-09T12:45:33.736Z,42.54
2022-08-09T12:48:03.211Z,42.60
2022-08-09T12:50:30.328Z,42.68
2022-08-09T12:53:18.114Z,42.61
2022-08-09T12:56:15.670Z,42.73
2022-08-09T12:58:30.375Z,42.19
2022-08-09T13:00:58.759Z,40.87
2022-08-09T13:03:57.191Z,42.04
2022-08-09T13:06:37.115Z,42.30
2022-08-09T13:09:18.229Z,42.21
2022-08-09T13:11:47.388Z,42.40
2022-08-09T13:14:42.413Z,42.56
2022-08-09T13:17:08.448Z,41.96
2022-08-09T13:20:09.772Z,41.69
2022-08-09T13:22:38.386Z,41.43
2022-08-09T13:25:16.343Z,41.54
2022-08-09T13:27:48.676Z,41.16
2022-08-09T13:30:50.543Z,41.57
2022-08-09T13:33:11.996Z,41.10
2022-08-09T13:36:39.604Z,40.75
2022-08-09T13:38:57.535Z,41.24
2022-08-09T13:41:57.602Z,41.37
2022-08-09T13:44:16.620Z,41.35
2022-08-09T13:47:26.917Z,40.21
2022-08-09T13:49:38.099Z,40.32
2022-08-09T13:52:23.650Z,40.59
2022-08-09T13:54:59.936Z,40.79
2022-08-09T13:57:37.457Z,40.76
2022-08-09T14:00:18.652Z,40.37
2022-08-09T14:03:03.016Z,40.04
2022-08-09T14:05:56.892Z,40.31
2022-08-09T14:08:27.049Z,39.99
2022-08-09T14:10:55.472Z,39.17
2022-08-09T14:14:15.785Z,39.18
2022-08-09T14:16:15.088Z,39.05
2022-08-09T14:18:45.876Z,39.16
2022-08-09T14:21:22.598Z,39.68
2022-08-09T14:23:56.703Z,39.11
2022-08-09T14:26:32.444Z,38.67
2022-08-09T14:30:18.382Z,38.51
2022-08-09T14:32:02.083Z,39.37
2022-08-09T14:34:34.001Z,39.76
2022-08-09T14:37:02.231Z,39.93
2022-08-09T14:39:47.490Z,38.99
2022-08-09T14:42:31.856Z,38.48
2022-08-09T14:45:14.759Z,38.95
2022-08-09T14:47:49.548Z,38.17
2022-08-09T14:50:24.685Z,37.60
2022-08-09T14:52:51.368Z,36.38
2022-08-09T14:55:23.057Z,36.52
2022-08-09T14:57:49.982Z,36.70
2022-08-09T15:00:17.658Z,37.30
2022-08-09T15:02:47.578Z,36.63
2022-08-09T15:05:19.135Z,38.29
2022-08-09T15:07:54.702Z,38.45
2022-08-09T15:10:24.989Z,38.37
2022-08-09T15:12:53.288Z,37.99
2022-08-09T15:15:20.389Z,37.84
2022-08-09T15:17:52.582Z,37.78
2022-08-09T15:21:54.981Z,37.66
2022-08-09T15:24:03.041Z,37.42
2022-08-09T15:25:57.417Z,37.87
2022-08-09T15:28:28.386Z,37.54
2022-08-09T15:31:09.812Z,37.29
2022-08-09T15:34:18.225Z,37.29
2022-08-09T15:36:32.196Z,37.22
2022-08-09T15:39:00.147Z,36.72
2022-08-09T15:41:31.508Z,36.13
2022-08-09T15:44:02.725Z,35.44
2022-08-09T15:46:37.174Z,35.89
2022-08-09T15:49:22.113Z,34.87
2022-08-09T15:52:02.886Z,34.71
2022-08-09T15:54:50.571Z,34.95
2022-08-09T15:57:35.030Z,36.04
2022-08-09T16:00:14.283Z,35.38
2022-08-09T16:02:48.202Z,35.97
2022-08-09T16:05:22.109Z,35.51
2022-08-09T16:07:49.397Z,35.79
2022-08-09T16:10:56.006Z,35.54
2022-08-09T16:13:18.926Z,35.39
2022-08-09T16:16:10.834Z,35.49
2022-08-09T16:18:45.558Z,34.06
2022-08-09T16:21:16.967Z,34.74
2022-08-09T16:23:50.854Z,34.46
2022-08-09T16:26:33.392Z,34.11
2022-08-09T16:29:11.295Z,34.52
2022-08-09T16:32:19.577Z,34.84
2022-08-09T16:34:54.982Z,35.46
2022-08-09T16:37:55.287Z,35.75
2022-08-09T16:40:12.898Z,35.77
2022-08-09T16:42:45.574Z,35.50
2022-08-09T16:45:20.129Z,35.75
2022-08-09T16:48:42.503Z,35.43
2022-08-09T16:50:38.882Z,35.30
2022-08-09T16:53:06.134Z,35.93
2022-08-09T16:55:59.950Z,36.44
2022-08-09T16:58:21.073Z,35.91
2022-08-09T17:00:48.857Z,36.22
2022-08-09T17:03:21.360Z,35.55
2022-08-09T17:06:07.399Z,35.25
2022-08-09T17:09:03.211Z,36.20
2022-08-09T17:11:32.941Z,35.98
2022-08-09T17:14:25.961Z,36.21
2022-08-09T17:17:01.082Z,35.89
2022-08-09T17:20:05.980Z,36.10
2022-08-09T17:22:30.856Z,36.00
2022-08-09T17:25:02.737Z,36.03
2022-08-09T17:27:32.572Z,36.09
2022-08-09T17:29:59.209Z,35.72
2022-08-09T17:32:38.380Z,35.83
2022-08-09T17:35:12.333Z,35.57
2022-08-09T17:38:02.794Z,35.77
2022-08-09T17:40:33.834Z,35.68
2022-08-09T17:43:32.095Z,36.01
2022-08-09T17:46:03.737Z,35.97
2022-08-09T17:48:39.453Z,36.05
2022-08-09T17:51:19.445Z,35.77
2022-08-09T17:53:52.979Z,35.64
2022-08-09T17:56:28.785Z,35.85
2022-08-09T17:59:11.352Z,35.87
2022-08-09T18:02:06.606Z,35.76
2022-08-09T18:04:27.929Z,35.95
2022-08-09T18:06:55.835Z,36.07
2022-08-09T18:09:25.184Z,36.10
2022-08-09T18:12:15.356Z,36.22
2022-08-09T18:14:53.565Z,36.40
2022-08-09T18:17:27.549Z,36.95
2022-08-09T18:20:55.492Z,36.77
2022-08-09T18:22:56.936Z,36.94
2022-08-09T18:30:40.108Z,37.70
2022-08-09T18:31:51.681Z,37.74
2022-08-09T18:34:14.617Z,37.64
2022-08-09T18:36:41.392Z,38.21
2022-08-09T18:39:16.726Z,38.33
2022-08-09T18:41:52.887Z,38.55
2022-08-09T18:44:30.493Z,38.59
2022-08-09T18:47:08.293Z,38.94
2022-08-09T18:49:41.766Z,39.24
2022-08-09T18:52:14.540Z,39.14
2022-08-09T18:54:52.370Z,39.61
2022-08-09T18:57:22.389Z,39.77
2022-08-09T18:59:57.639Z,40.02
2022-08-09T19:02:31.802Z,40.59
2022-08-09T19:05:20.437Z,41.21
2022-08-09T19:08:04.211Z,41.29
2022-08-09T19:10:39.478Z,41.72
2022-08-09T19:13:23.603Z,41.88
2022-08-09T19:15:56.886Z,42.34
2022-08-09T19:18:33.351Z,42.38
2022-08-09T19:21:05.480Z,42.80
2022-08-09T19:24:37.175Z,42.61
2022-08-09T19:26:19.351Z,43.32
2022-08-09T19:29:01.295Z,43.39
2022-08-09T19:31:30.782Z,43.42
2022-08-09T19:34:21.330Z,43.77
2022-08-09T19:36:51.444Z,43.81
2022-08-09T19:39:20.473Z,43.76
2022-08-09T19:41:56.717Z,44.14
2022-08-09T19:44:23.737Z,44.56
2022-08-09T19:46:53.528Z,44.32
2022-08-09T19:50:09.775Z,44.49
2022-08-09T19:52:10.112Z,44.18
2022-08-09T19:54:39.878Z,44.32
2022-08-09T19:57:08.547Z,44.91
2022-08-09T19:59:58.047Z,45.00
2022-08-09T20:04:18.092Z,44.94
2022-08-09T20:05:14.586Z,45.49
2022-08-09T20:07:56.733Z,45.55
2022-08-09T20:10:33.984Z,45.32
2022-08-09T20:13:04.084Z,45.86
2022-08-09T20:16:33.878Z,45.61
2022-08-09T20:18:22.171Z,46.39
2022-08-09T20:20:55.013Z,46.21
2022-08-09T20:23:23.556Z,46.28
2022-08-09T20:25:52.488Z,46.32
2022-08-09T20:28:27.798Z,46.33
2022-08-09T20:31:04.863Z,46.40
2022-08-09T20:33:39.133Z,46.30
2022-08-09T20:36:08.860Z,46.42
2022-08-09T20:39:02.657Z,46.77
2022-08-09T20:41:32.065Z,46.42
2022-08-09T20:44:02.302Z,46.81
2022-08-09T20:46:42.341Z,46.79
2022-08-09T20:49:11.494Z,46.77
2022-08-09T20:51:40.972Z,46.99
2022-08-09T20:54:16.735Z,46.80
2022-08-09T20:56:46.777Z,46.77
2022-08-09T20:59:16.754Z,46.87
2022-08-09T21:01:50.798Z,47.45
2022-08-09T21:05:52.069Z,47.30
2022-08-09T21:07:11.414Z,47.32
2022-08-09T21:09:56.784Z,47.57
2022-08-09T21:15:14.077Z,48.29
2022-08-09T21:18:11.074Z,48.32
2022-08-09T21:20:29.959Z,48.05
2022-08-09T21:22:57.700Z,48.53
2022-08-09T21:25:44.207Z,48.03
2022-08-09T21:28:33.318Z,48.57
2022-08-09T21:31:00.691Z,48.71
2022-08-09T21:33:43.660Z,48.68
2022-08-09T21:36:10.327Z,48.79
2022-08-09T21:38:38.167Z,48.93
2022-08-09T21:41:08.404Z,48.88
2022-08-09T21:43:57.843Z,49.07
2022-08-09T21:46:24.148Z,49.45
2022-08-09T21:48:52.447Z,49.59
2022-08-09T21:51:23.961Z,49.93
2022-08-09T21:53:57.695Z,49.73
2022-08-09T21:56:42.905Z,49.93
2022-08-09T21:59:11.224Z,50.32
2022-08-09T22:02:01.246Z,50.49
2022-08-09T22:04:55.574Z,50.33
2022-08-09T22:07:35.522Z,50.56
2022-08-09T22:10:04.823Z,50.82
2022-08-09T22:12:32.067Z,50.92
2022-08-09T22:14:59.145Z,50.77
2022-08-09T22:17:31.820Z,50.98
2022-08-09T22:20:00.700Z,50.80
2022-08-09T22:22:31.299Z,51.02
2022-08-09T22:26:08.370Z,51.00
2022-08-09T22:27:47.989Z,51.14
2022-08-09T22:30:15.496Z,51.10
2022-08-09T22:32:53.164Z,51.02
2022-08-09T22:36:01.460Z,51.18
2022-08-09T22:38:07.163Z,51.64
2022-08-09T22:40:35.258Z,51.73
2022-08-09T22:43:16.039Z,51.51
2022-08-09T22:48:12.121Z,51.39
2022-08-09T22:48:35.736Z,51.61
2022-08-09T22:51:10.721Z,51.85
2022-08-09T22:54:01.136Z,52.09
2022-08-09T22:56:34.350Z,51.87
2022-08-09T22:59:05.783Z,52.20
2022-08-09T23:01:49.002Z,52.04
2022-08-09T23:04:15.711Z,52.58
2022-08-09T23:07:02.630Z,52.80
2022-08-09T23:09:29.473Z,52.84
2022-08-09T23:11:56.118Z,52.77
2022-08-09T23:14:37.260Z,52.81
2022-08-09T23:17:08.683Z,52.97
2022-08-09T23:20:07.245Z,53.35
2022-08-09T23:22:21.974Z,53.60
2022-08-09T23:24:48.823Z,53.47
2022-08-09T23:27:15.749Z,53.65
2022-08-09T23:29:42.610Z,53.77
2022-08-09T23:32:09.347Z,53.83
2022-08-09T23:34:36.704Z,53.74
2022-08-09T23:37:04.589Z,54.04
2022-08-09T23:39:31.469Z,54.16
2022-08-09T23:41:58.482Z,54.34
2022-08-09T23:44:25.176Z,54.90
2022-08-09T23:46:57.342Z,54.64
2022-08-09T23:49:25.602Z,55.04
2022-08-09T23:51:53.600Z,55.57
2022-08-09T23:54:21.035Z,55.26
2022-08-09T23:56:55.870Z,55.48
2022-08-09T23:59:24.347Z,55.58
